RJFR/KKJ METAR and TAF weather

Enter ICAO airport designator
Station Type Date Time Source
RJFR METAR 2019/12/14 19:00 UTC NOAA

RJFR 141900Z 06013KT 9999 FEW025 BKN050 BKN/// 11/04 Q1027


Station Type Date Time Source
RJFR Decoded METAR 2019/12/14 19:00 UTC NOAA

Kitakyushu Airport, Japan (RJFR) 33-50N 130-57E 6M
Dec 14, 2019 - 02:00 PM EST / 2019.12.14 1900 UTC
Wind: from the ENE (060 degrees) at 15 MPH (13 KT):0
Visibility: greater than 7 mile(s):0
Sky conditions: mostly cloudy
Temperature: 51 F (11 C)
Dew Point: 39 F (4 C)
Relative Humidity: 61%
Pressure (altimeter): 30.33 in. Hg (1027 hPa)
ob: RJFR 141900Z 06013KT 9999 FEW025 BKN050 BKN/// 11/04 Q1027
cycle: 19

Station Type Date Time Source
RJFR TAF 2019/12/14 18:00 UTC NOAA

TAF RJFR 141707Z 1418/1600 04009KT 9999 FEW025 SCT045
BECMG 1501/1503 09008KT

Example: see airport list